Terminal Aerodrome Forecast
Issued by NWS

Home | Current Version | Previous Version | Text Only | Print | Product List | Glossary On
Versions: 1 2 3 4 5 6 7 8 9 10 11 12 13 14 15 16 17 18 19
000
FTUS43 KILX 231700
TAFCMI
TAF
KCMI 231720Z 2318/2418 03013G21KT P6SM SCT045
      TEMPO 2318/2320 BKN040
     FM232000 03012G20KT P6SM SCT045
     FM240100 03009KT P6SM FEW050
     FM240300 03007KT P6SM SKC
     FM241500 03008KT P6SM SCT040=

USA.gov is the U.S. government's official web portal to all federal, state and local government web resources and services.